createdAt,value
2022-08-11T00:02:22.122Z,19.65
2022-08-11T00:04:53.681Z,19.64
2022-08-11T00:07:25.565Z,19.62
2022-08-11T00:09:57.070Z,19.57
2022-08-11T00:12:28.905Z,19.55
2022-08-11T00:15:00.446Z,19.49
2022-08-11T00:17:32.493Z,19.50
2022-08-11T00:20:12.402Z,19.44
2022-08-11T00:22:47.688Z,19.41
2022-08-11T00:25:19.238Z,19.35
2022-08-11T00:27:51.233Z,19.30
2022-08-11T00:30:23.183Z,19.27
2022-08-11T00:32:55.256Z,19.25
2022-08-11T00:35:55.991Z,19.20
2022-08-11T00:38:19.334Z,19.19
2022-08-11T00:40:50.841Z,19.17
2022-08-11T00:43:22.862Z,19.13
2022-08-11T00:45:54.356Z,19.07
2022-08-11T00:48:28.043Z,19.05
2022-08-11T00:50:59.558Z,19.00
2022-08-11T00:53:31.801Z,18.97
2022-08-11T00:56:03.303Z,18.97
2022-08-11T00:58:34.971Z,18.91
2022-08-11T01:01:06.630Z,18.88
2022-08-11T01:03:38.467Z,18.84
2022-08-11T01:06:11.548Z,18.82
2022-08-11T01:08:43.431Z,18.77
2022-08-11T01:11:15.069Z,18.72
2022-08-11T01:13:47.561Z,18.72
2022-08-11T01:16:19.055Z,18.69
2022-08-11T01:18:50.881Z,18.62
2022-08-11T01:21:22.375Z,18.61
2022-08-11T01:23:54.243Z,18.56
2022-08-11T01:26:25.783Z,18.58
2022-08-11T01:28:57.618Z,18.54
2022-08-11T01:31:29.153Z,18.50
2022-08-11T01:34:00.954Z,18.48
2022-08-11T01:36:32.466Z,18.45
2022-08-11T01:39:04.342Z,18.39
2022-08-11T01:41:54.732Z,18.37
2022-08-11T01:44:38.581Z,18.32
2022-08-11T01:47:10.082Z,18.28
2022-08-11T01:50:08.589Z,18.27
2022-08-11T01:52:35.125Z,18.22
2022-08-11T01:55:06.871Z,18.20
2022-08-11T01:57:38.794Z,18.16
2022-08-11T02:00:11.774Z,18.15
2022-08-11T02:02:47.982Z,18.10
2022-08-11T02:05:19.555Z,18.07
2022-08-11T02:07:51.388Z,18.03
2022-08-11T02:10:41.773Z,18.00
2022-08-11T02:13:32.395Z,17.93
2022-08-11T02:16:07.379Z,17.92
2022-08-11T02:18:58.160Z,17.91
2022-08-11T02:21:48.206Z,17.86
2022-08-11T02:24:20.275Z,17.77
2022-08-11T02:26:51.809Z,17.80
2022-08-11T02:29:23.626Z,17.78
2022-08-11T02:32:28.741Z,17.73
2022-08-11T02:35:02.385Z,17.68
2022-08-11T02:37:34.249Z,17.66
2022-08-11T02:40:05.739Z,17.64
2022-08-11T02:42:37.578Z,17.57
2022-08-11T02:45:09.097Z,17.54
2022-08-11T02:47:40.969Z,17.50
2022-08-11T02:50:12.452Z,17.50
2022-08-11T02:52:45.737Z,17.47
2022-08-11T02:55:55.747Z,17.46
2022-08-11T02:58:11.479Z,17.42
2022-08-11T03:00:45.576Z,17.33
2022-08-11T03:03:17.576Z,17.29
2022-08-11T03:05:49.160Z,17.25
2022-08-11T03:08:24.760Z,17.22
2022-08-11T03:11:15.037Z,17.20
2022-08-11T03:14:05.427Z,17.15
2022-08-11T03:16:45.985Z,17.14
2022-08-11T03:19:17.524Z,17.11
2022-08-11T03:22:02.906Z,17.09
2022-08-11T03:24:35.559Z,17.05
2022-08-11T03:27:07.054Z,17.04
2022-08-11T03:29:38.899Z,17.02
2022-08-11T03:32:11.391Z,16.99
2022-08-11T03:34:42.898Z,17.00
2022-08-11T03:37:34.750Z,16.98
2022-08-11T03:40:06.288Z,16.93
2022-08-11T03:42:38.262Z,16.93
2022-08-11T03:45:10.300Z,16.93
2022-08-11T03:47:52.449Z,16.90
2022-08-11T03:50:27.270Z,16.88
2022-08-11T03:52:59.004Z,16.88
2022-08-11T03:55:32.021Z,16.87
2022-08-11T03:58:03.910Z,16.87
2022-08-11T04:00:35.408Z,16.87
2022-08-11T04:03:08.338Z,16.89
2022-08-11T04:05:39.866Z,16.88
2022-08-11T04:08:11.379Z,16.89
2022-08-11T04:10:42.888Z,16.87
2022-08-11T04:13:14.702Z,16.90
2022-08-11T04:16:11.486Z,16.92
2022-08-11T04:18:44.223Z,16.97
2022-08-11T04:21:16.767Z,16.99
2022-08-11T04:24:35.439Z,17.01
2022-08-11T04:26:40.075Z,17.09
2022-08-11T04:29:11.972Z,17.13
2022-08-11T04:31:52.382Z,17.15
2022-08-11T04:34:24.398Z,17.22
2022-08-11T04:37:15.344Z,17.27
2022-08-11T04:39:49.264Z,17.35
2022-08-11T04:42:40.096Z,17.40
2022-08-11T04:45:11.980Z,17.47
2022-08-11T04:48:04.615Z,17.52
2022-08-11T04:51:09.062Z,17.61
2022-08-11T04:54:06.018Z,17.74
2022-08-11T04:56:56.728Z,17.80
2022-08-11T04:59:46.905Z,17.90
2022-08-11T05:02:18.752Z,17.98
2022-08-11T05:05:09.022Z,18.08
2022-08-11T05:07:40.843Z,18.22
2022-08-11T05:10:12.344Z,18.34
2022-08-11T05:12:44.224Z,18.50
2022-08-11T05:15:43.188Z,18.61
2022-08-11T05:18:34.444Z,18.72
2022-08-11T05:21:24.563Z,18.82
2022-08-11T05:24:15.120Z,18.98
2022-08-11T05:27:07.781Z,19.13
2022-08-11T05:30:01.667Z,19.24
2022-08-11T05:32:52.390Z,19.32
2022-08-11T05:35:59.813Z,19.52
2022-08-11T05:38:35.946Z,19.53
2022-08-11T05:41:26.425Z,19.65
2022-08-11T05:44:20.194Z,19.75
2022-08-11T05:47:13.110Z,19.90
2022-08-11T05:50:03.596Z,18.82
2022-08-11T05:52:55.422Z,20.10
2022-08-11T05:56:02.441Z,20.29
2022-08-11T05:58:39.743Z,20.51
2022-08-11T06:01:13.749Z,20.74
2022-08-11T06:04:11.738Z,20.88
2022-08-11T06:06:46.889Z,20.89
2022-08-11T06:09:18.572Z,21.08
2022-08-11T06:11:50.468Z,21.19
2022-08-11T06:14:22.393Z,21.24
2022-08-11T06:16:53.912Z,21.34
2022-08-11T06:19:25.430Z,21.51
2022-08-11T06:21:57.658Z,21.57
2022-08-11T06:24:29.249Z,21.81
2022-08-11T06:27:12.227Z,21.93
2022-08-11T06:29:47.630Z,22.11
2022-08-11T06:32:20.158Z,22.19
2022-08-11T06:34:52.883Z,22.33
2022-08-11T06:37:24.393Z,22.46
2022-08-11T06:39:55.985Z,22.71
2022-08-11T06:42:27.959Z,22.79
2022-08-11T06:44:59.536Z,22.81
2022-08-11T06:47:31.391Z,22.92
2022-08-11T06:50:22.078Z,23.01
2022-08-11T06:52:53.729Z,23.37
2022-08-11T06:55:56.763Z,23.26
2022-08-11T06:58:49.063Z,23.39
2022-08-11T07:01:21.642Z,23.46
2022-08-11T07:03:54.483Z,23.54
2022-08-11T07:06:26.552Z,23.81
2022-08-11T07:09:24.809Z,24.08
2022-08-11T07:12:15.579Z,24.15
2022-08-11T07:15:05.596Z,24.19
2022-08-11T07:17:37.477Z,24.48
2022-08-11T07:20:28.044Z,24.67
2022-08-11T07:23:18.142Z,24.92
2022-08-11T07:26:08.720Z,24.90
2022-08-11T07:28:55.488Z,25.16
2022-08-11T07:31:27.283Z,25.31
2022-08-11T07:34:07.888Z,25.36
2022-08-11T07:36:42.194Z,25.20
2022-08-11T07:39:14.945Z,25.78
2022-08-11T07:41:47.678Z,26.01
2022-08-11T07:44:19.343Z,25.79
2022-08-11T07:47:10.100Z,26.00
2022-08-11T07:50:00.717Z,25.82
2022-08-11T07:52:35.014Z,26.04
2022-08-11T07:55:08.507Z,26.21
2022-08-11T07:58:16.813Z,26.12
2022-08-11T08:01:21.434Z,26.67
2022-08-11T08:04:13.380Z,27.00
2022-08-11T08:07:03.763Z,27.20
2022-08-11T08:09:54.177Z,27.32
2022-08-11T08:12:44.364Z,27.66
2022-08-11T08:15:34.962Z,27.79
2022-08-11T08:18:09.138Z,28.05
2022-08-11T08:21:12.412Z,28.11
2022-08-11T08:23:44.394Z,28.29
2022-08-11T08:26:36.062Z,28.46
2022-08-11T08:29:26.637Z,28.51
2022-08-11T08:31:58.141Z,28.89
2022-08-11T08:34:32.311Z,28.75
2022-08-11T08:37:44.909Z,29.07
2022-08-11T08:39:59.542Z,29.17
2022-08-11T08:42:31.098Z,29.13
2022-08-11T08:45:03.015Z,29.09
2022-08-11T08:47:42.856Z,29.71
2022-08-11T08:50:16.598Z,29.85
2022-08-11T08:52:49.122Z,29.98
2022-08-11T08:55:21.344Z,29.72
2022-08-11T08:57:52.862Z,30.02
2022-08-11T09:00:24.737Z,30.28
2022-08-11T09:02:56.280Z,30.08
2022-08-11T09:05:28.107Z,30.31
2022-08-11T09:08:00.018Z,30.40
2022-08-11T09:10:31.930Z,30.31
2022-08-11T09:13:03.451Z,30.62
2022-08-11T09:15:36.517Z,30.85
2022-08-11T09:18:09.304Z,30.98
2022-08-11T09:20:41.238Z,30.60
2022-08-11T09:26:42.069Z,30.45
2022-08-11T09:29:13.715Z,31.11
2022-08-11T09:31:45.572Z,31.39
2022-08-11T09:34:17.160Z,31.54
2022-08-11T09:37:07.281Z,31.84
2022-08-11T09:39:58.064Z,31.69
2022-08-11T09:42:49.633Z,32.13
2022-08-11T09:45:21.525Z,32.11
2022-08-11T09:47:53.046Z,31.75
2022-08-11T09:50:24.979Z,31.82
2022-08-11T09:53:34.890Z,31.45
2022-08-11T09:55:48.386Z,31.28
2022-08-11T09:58:43.202Z,31.97
2022-08-11T10:01:27.646Z,31.97
2022-08-11T10:04:00.786Z,31.91
2022-08-11T10:06:54.456Z,32.71
2022-08-11T10:09:27.231Z,32.93
2022-08-11T10:11:58.950Z,32.93
2022-08-11T10:14:49.487Z,33.31
2022-08-11T10:17:21.110Z,33.32
2022-08-11T10:20:04.732Z,33.56
2022-08-11T10:22:56.299Z,33.33
2022-08-11T10:25:47.057Z,33.49
2022-08-11T10:28:33.492Z,33.43
2022-08-11T10:31:27.521Z,32.95
2022-08-11T10:34:10.908Z,33.47
2022-08-11T10:36:50.141Z,33.76
2022-08-11T10:39:22.259Z,34.35
2022-08-11T10:42:21.045Z,34.37
2022-08-11T10:45:02.446Z,34.60
2022-08-11T10:47:36.832Z,34.09
2022-08-11T10:50:27.710Z,33.82
2022-08-11T10:53:17.981Z,33.85
2022-08-11T10:56:08.495Z,33.84
2022-08-11T10:58:52.323Z,33.89
2022-08-11T11:01:36.750Z,34.38
2022-08-11T11:04:12.419Z,34.18
2022-08-11T11:06:44.932Z,34.48
2022-08-11T11:09:17.121Z,33.92
2022-08-11T11:12:07.569Z,34.05
2022-08-11T11:14:59.285Z,32.79
2022-08-11T11:17:49.774Z,33.88
2022-08-11T11:20:36.277Z,33.84
2022-08-11T11:23:10.530Z,34.51
2022-08-11T11:25:42.091Z,34.08
2022-08-11T11:28:14.089Z,33.91
2022-08-11T11:30:45.664Z,33.96
2022-08-11T11:33:17.587Z,34.37
2022-08-11T11:35:49.492Z,33.66
2022-08-11T11:38:21.581Z,33.45
2022-08-11T11:41:13.180Z,33.77
2022-08-11T11:43:46.417Z,34.50
2022-08-11T11:46:18.142Z,34.78
2022-08-11T11:48:50.079Z,34.80
2022-08-11T11:51:21.785Z,34.17
2022-08-11T11:53:53.905Z,33.43
2022-08-11T11:56:25.468Z,33.73
2022-08-11T11:59:16.373Z,33.80
2022-08-11T12:01:50.393Z,34.00
2022-08-11T12:04:25.576Z,33.97
2022-08-11T12:07:17.085Z,34.14
2022-08-11T12:09:48.955Z,33.63
2022-08-11T12:12:39.481Z,33.93
2022-08-11T12:15:11.139Z,34.04
2022-08-11T12:17:43.110Z,34.16
2022-08-11T12:20:31.849Z,34.26
2022-08-11T12:23:24.897Z,33.95
2022-08-11T12:26:26.889Z,34.44
2022-08-11T12:29:00.173Z,34.21
2022-08-11T12:31:31.681Z,34.45
2022-08-11T12:34:03.785Z,34.22
2022-08-11T12:36:35.318Z,33.61
2022-08-11T12:39:23.172Z,33.63
2022-08-11T12:42:14.813Z,34.03
2022-08-11T12:45:07.043Z,34.08
2022-08-11T12:48:57.639Z,34.03
2022-08-11T12:51:22.747Z,34.11
2022-08-11T12:53:55.584Z,34.65
2022-08-11T12:56:45.913Z,34.03
2022-08-11T12:59:36.277Z,33.99
2022-08-11T13:02:26.758Z,34.05
2022-08-11T13:05:02.040Z,34.04
2022-08-11T13:07:50.450Z,34.09
2022-08-11T13:10:41.818Z,34.40
2022-08-11T13:13:54.542Z,33.42
2022-08-11T13:16:06.270Z,34.05
2022-08-11T13:18:37.810Z,34.42
2022-08-11T13:21:09.319Z,34.89
2022-08-11T13:23:41.125Z,34.64
2022-08-11T13:26:43.468Z,34.96
2022-08-11T13:29:20.321Z,34.92
2022-08-11T13:31:51.892Z,34.87
2022-08-11T13:34:23.815Z,34.32
2022-08-11T13:36:55.719Z,34.48
2022-08-11T13:39:27.301Z,34.73
2022-08-11T13:41:59.767Z,34.93
2022-08-11T13:44:31.375Z,34.74
2022-08-11T13:47:04.577Z,34.53
2022-08-11T13:49:37.034Z,34.17
2022-08-11T13:52:13.266Z,35.04
2022-08-11T13:54:44.853Z,35.05
2022-08-11T13:58:07.735Z,34.63
2022-08-11T14:00:23.803Z,35.06
2022-08-11T14:02:59.773Z,35.53
2022-08-11T14:05:31.354Z,35.69
2022-08-11T14:08:02.922Z,35.05
2022-08-11T14:10:34.476Z,34.69
2022-08-11T14:13:42.736Z,34.22
2022-08-11T14:16:19.704Z,34.77
2022-08-11T14:18:51.549Z,34.40
2022-08-11T14:21:42.418Z,34.44
2022-08-11T14:24:13.968Z,34.96
2022-08-11T14:26:45.892Z,35.18
2022-08-11T14:29:17.525Z,35.58
2022-08-11T14:31:49.571Z,35.47
2022-08-11T14:34:21.542Z,35.25
2022-08-11T14:36:53.183Z,35.46
2022-08-11T14:39:24.817Z,35.73
2022-08-11T14:42:15.889Z,36.09
2022-08-11T14:45:05.958Z,36.42
2022-08-11T14:47:37.807Z,36.56
2022-08-11T14:50:12.166Z,36.53
2022-08-11T14:52:45.401Z,36.19
2022-08-11T14:55:35.835Z,36.54
2022-08-11T14:58:07.793Z,36.63
2022-08-11T15:00:39.861Z,36.26
2022-08-11T15:03:11.917Z,36.29
2022-08-11T15:05:55.747Z,36.69
2022-08-11T15:08:47.079Z,35.87
2022-08-11T15:11:37.697Z,36.10
2022-08-11T15:14:09.260Z,35.42
2022-08-11T15:16:59.879Z,35.40
2022-08-11T15:19:40.249Z,35.28
2022-08-11T15:22:31.567Z,35.28
2022-08-11T15:25:03.062Z,35.52
2022-08-11T15:27:53.847Z,35.30
2022-08-11T15:30:44.311Z,35.71
2022-08-11T15:33:34.537Z,35.12
2022-08-11T15:36:24.636Z,35.36
2022-08-11T15:38:56.183Z,35.41
2022-08-11T15:41:58.576Z,35.57
2022-08-11T15:45:05.102Z,35.51
2022-08-11T15:47:37.770Z,35.24
2022-08-11T15:50:13.648Z,34.84
2022-08-11T15:52:45.587Z,34.76
2022-08-11T15:55:17.730Z,34.93
2022-08-11T15:58:07.961Z,34.61
2022-08-11T16:01:03.648Z,34.21
2022-08-11T16:04:08.987Z,33.62
2022-08-11T16:06:47.730Z,33.03
2022-08-11T16:09:21.197Z,32.71
2022-08-11T16:11:54.335Z,32.24
2022-08-11T16:14:44.815Z,31.75
2022-08-11T16:17:17.828Z,31.21
2022-08-11T16:19:49.795Z,30.97
2022-08-11T16:22:21.635Z,30.79
2022-08-11T16:27:02.258Z,30.33
2022-08-11T16:27:45.162Z,30.29
2022-08-11T16:30:17.227Z,30.20
2022-08-11T16:32:52.044Z,30.22
2022-08-11T16:35:42.589Z,30.08
2022-08-11T16:38:33.055Z,29.99
2022-08-11T16:41:10.936Z,29.95
2022-08-11T16:44:01.856Z,29.81
2022-08-11T16:46:52.366Z,29.95
2022-08-11T16:49:27.830Z,29.78
2022-08-11T16:52:04.287Z,29.90
2022-08-11T16:54:35.840Z,29.76
2022-08-11T16:57:26.785Z,29.74
2022-08-11T16:59:58.299Z,29.74
2022-08-11T17:02:48.429Z,29.61
2022-08-11T17:05:54.121Z,29.70
2022-08-11T17:08:49.851Z,29.55
2022-08-11T17:11:48.564Z,29.65
2022-08-11T17:14:35.335Z,29.45
2022-08-11T17:17:07.788Z,29.39
2022-08-11T17:20:41.115Z,29.25
2022-08-11T17:22:49.928Z,29.15
2022-08-11T17:25:21.790Z,27.99
2022-08-11T17:27:53.317Z,29.02
2022-08-11T17:30:44.812Z,29.02
2022-08-11T17:33:34.965Z,28.92
2022-08-11T17:36:06.964Z,28.72
2022-08-11T17:38:38.525Z,28.57
2022-08-11T17:41:29.229Z,28.51
2022-08-11T17:44:19.540Z,28.42
2022-08-11T17:47:09.915Z,28.27
2022-08-11T17:49:41.426Z,28.15
2022-08-11T17:52:35.387Z,28.10
2022-08-11T17:55:52.243Z,27.97
2022-08-11T17:58:35.979Z,27.93
2022-08-11T18:01:09.437Z,27.72
2022-08-11T18:03:41.478Z,27.62
2022-08-11T18:06:13.388Z,27.55
2022-08-11T18:09:03.625Z,27.45
2022-08-11T18:12:07.364Z,27.39
2022-08-11T18:15:02.818Z,27.20
2022-08-11T18:17:52.929Z,27.14
2022-08-11T18:20:43.371Z,26.98
2022-08-11T18:23:45.713Z,26.93
2022-08-11T18:26:37.647Z,26.82
2022-08-11T18:29:27.688Z,26.72
2022-08-11T18:32:21.901Z,26.58
2022-08-11T18:35:15.388Z,26.48
2022-08-11T18:38:05.586Z,26.38
2022-08-11T18:40:56.314Z,26.24
2022-08-11T18:43:46.645Z,26.13
2022-08-11T18:46:37.200Z,26.04
2022-08-11T18:49:27.469Z,25.93
2022-08-11T18:52:38.036Z,25.81
2022-08-11T18:55:29.585Z,25.72
2022-08-11T18:58:19.994Z,25.61
2022-08-11T19:01:10.518Z,25.50
2022-08-11T19:04:10.417Z,25.42
2022-08-11T19:07:02.753Z,25.34
2022-08-11T19:09:53.123Z,25.27
2022-08-11T19:12:44.911Z,25.18
2022-08-11T19:15:35.683Z,25.10
2022-08-11T19:18:25.895Z,24.02
2022-08-11T19:21:16.592Z,24.99
2022-08-11T19:24:06.779Z,24.92
2022-08-11T19:26:56.915Z,24.85
2022-08-11T19:30:04.865Z,24.77
2022-08-11T19:32:57.517Z,24.67
2022-08-11T19:35:47.893Z,24.56
2022-08-11T19:38:38.312Z,24.55
2022-08-11T19:41:56.783Z,24.47
2022-08-11T19:44:38.695Z,24.40
2022-08-11T19:47:29.149Z,24.36
2022-08-11T19:50:24.230Z,24.29
2022-08-11T19:53:17.674Z,24.25
2022-08-11T19:56:08.333Z,24.19
2022-08-11T19:58:58.462Z,24.12
2022-08-11T20:02:01.248Z,24.06
2022-08-11T20:04:59.357Z,24.01
2022-08-11T20:07:49.589Z,23.93
2022-08-11T20:10:39.760Z,23.90
2022-08-11T20:13:29.874Z,23.85
2022-08-11T20:16:20.505Z,23.79
2022-08-11T20:19:10.695Z,23.76
2022-08-11T20:22:02.650Z,23.74
2022-08-11T20:24:56.574Z,23.67
2022-08-11T20:27:46.965Z,23.61
2022-08-11T20:30:37.545Z,23.57
2022-08-11T20:33:27.687Z,23.52
2022-08-11T20:36:17.824Z,23.45
2022-08-11T20:39:08.128Z,23.39
2022-08-11T20:41:59.670Z,23.32
2022-08-11T20:44:50.430Z,23.25
2022-08-11T20:47:59.882Z,23.21
2022-08-11T20:50:50.997Z,23.14
2022-08-11T20:53:42.691Z,23.04
2022-08-11T20:56:33.251Z,23.03
2022-08-11T20:59:24.111Z,22.98
2022-08-11T21:02:15.812Z,22.92
2022-08-11T21:05:06.806Z,22.86
2022-08-11T21:11:07.539Z,22.75
2022-08-11T21:13:58.594Z,22.66
2022-08-11T21:16:49.963Z,22.61
2022-08-11T21:19:54.641Z,22.57
2022-08-11T21:22:59.047Z,22.53
2022-08-11T21:25:59.250Z,22.45
2022-08-11T21:28:50.373Z,22.45
2022-08-11T21:31:47.422Z,22.37
2022-08-11T21:34:39.211Z,22.29
2022-08-11T21:37:30.900Z,22.22
2022-08-11T21:40:21.949Z,22.14
2022-08-11T21:43:15.399Z,22.06
2022-08-11T21:46:05.531Z,21.98
2022-08-11T21:48:55.930Z,21.95
2022-08-11T21:51:45.995Z,21.87
2022-08-11T21:54:36.463Z,21.81
2022-08-11T21:57:26.524Z,21.67
2022-08-11T22:00:17.199Z,21.66
2022-08-11T22:03:09.466Z,21.58
2022-08-11T22:06:00.131Z,21.53
2022-08-11T22:08:50.571Z,21.48
2022-08-11T22:11:43.094Z,21.42
2022-08-11T22:14:33.523Z,21.39
2022-08-11T22:17:23.590Z,21.31
2022-08-11T22:20:13.997Z,21.25
2022-08-11T22:23:04.496Z,21.18
2022-08-11T22:25:58.697Z,21.12
2022-08-11T22:28:52.752Z,21.06
2022-08-11T22:31:42.802Z,21.02
2022-08-11T22:34:33.080Z,20.94
2022-08-11T22:37:30.760Z,20.89
2022-08-11T22:40:21.185Z,20.84
2022-08-11T22:43:11.738Z,20.78
2022-08-11T22:46:01.881Z,20.74
2022-08-11T22:48:52.584Z,20.70
2022-08-11T22:51:42.845Z,20.67
2022-08-11T22:54:33.334Z,20.59
2022-08-11T22:57:23.475Z,20.55
2022-08-11T23:00:13.987Z,20.48
2022-08-11T23:03:04.481Z,20.44
2022-08-11T23:05:54.669Z,20.40
2022-08-11T23:08:45.262Z,20.32
2022-08-11T23:12:07.398Z,20.29
2022-08-11T23:14:46.517Z,20.22
2022-08-11T23:17:36.872Z,20.15
2022-08-11T23:20:28.792Z,20.11
2022-08-11T23:23:29.914Z,20.05
2022-08-11T23:26:20.045Z,20.01
2022-08-11T23:29:10.710Z,19.99
2022-08-11T23:32:00.982Z,19.93
2022-08-11T23:35:37.309Z,19.93
2022-08-11T23:38:01.939Z,19.88
2022-08-11T23:40:51.953Z,19.86
2022-08-11T23:43:42.644Z,19.84
2022-08-11T23:46:32.890Z,19.79
2022-08-11T23:49:23.374Z,19.76
2022-08-11T23:52:13.642Z,19.70
2022-08-11T23:55:04.161Z,19.65
2022-08-11T23:57:54.657Z,19.59
